sensor_id;sensor_type;location;lat;lon;timestamp;P1;durP1;ratioP1;P2;durP2;ratioP2
17193;SDS011;8713;48.388;10.928;2023-02-27T00:00:09;1.40;;;1.00;;
17193;SDS011;8713;48.388;10.928;2023-02-27T00:01:43;4.13;;;1.10;;
17193;SDS011;8713;48.388;10.928;2023-02-27T00:03:12;1.20;;;1.00;;
17193;SDS011;8713;48.388;10.928;2023-02-27T00:04:42;1.48;;;1.02;;
17193;SDS011;8713;48.388;10.928;2023-02-27T00:06:11;2.53;;;1.00;;
17193;SDS011;8713;48.388;10.928;2023-02-27T00:07:41;2.25;;;1.25;;
17193;SDS011;8713;48.388;10.928;2023-02-27T00:09:11;1.92;;;1.10;;
17193;SDS011;8713;48.388;10.928;2023-02-27T00:10:41;2.65;;;0.95;;
17193;SDS011;8713;48.388;10.928;2023-02-27T00:12:10;1.75;;;0.90;;
17193;SDS011;8713;48.388;10.928;2023-02-27T00:13:40;1.80;;;1.23;;
17193;SDS011;8713;48.388;10.928;2023-02-27T00:15:14;2.08;;;0.98;;
17193;SDS011;8713;48.388;10.928;2023-02-27T00:16:46;1.98;;;1.00;;
17193;SDS011;8713;48.388;10.928;2023-02-27T00:18:16;3.67;;;1.30;;
17193;SDS011;8713;48.388;10.928;2023-02-27T00:19:46;3.53;;;1.02;;
17193;SDS011;8713;48.388;10.928;2023-02-27T00:21:15;2.63;;;1.30;;
17193;SDS011;8713;48.388;10.928;2023-02-27T00:22:45;2.05;;;1.10;;
17193;SDS011;8713;48.388;10.928;2023-02-27T00:24:14;2.88;;;1.10;;
17193;SDS011;8713;48.388;10.928;2023-02-27T00:25:44;1.40;;;1.00;;
17193;SDS011;8713;48.388;10.928;2023-02-27T00:27:14;1.92;;;1.00;;
17193;SDS011;8713;48.388;10.928;2023-02-27T00:28:43;1.42;;;0.98;;
17193;SDS011;8713;48.388;10.928;2023-02-27T00:30:13;2.75;;;1.20;;
17193;SDS011;8713;48.388;10.928;2023-02-27T00:31:43;1.85;;;1.05;;
17193;SDS011;8713;48.388;10.928;2023-02-27T00:33:13;1.77;;;0.98;;
17193;SDS011;8713;48.388;10.928;2023-02-27T00:34:43;1.63;;;0.95;;
17193;SDS011;8713;48.388;10.928;2023-02-27T00:36:13;2.33;;;0.98;;
17193;SDS011;8713;48.388;10.928;2023-02-27T00:37:43;2.00;;;1.20;;
17193;SDS011;8713;48.388;10.928;2023-02-27T00:39:12;1.45;;;0.93;;
17193;SDS011;8713;48.388;10.928;2023-02-27T00:40:43;2.85;;;1.00;;
17193;SDS011;8713;48.388;10.928;2023-02-27T00:42:13;2.45;;;1.15;;
17193;SDS011;8713;48.388;10.928;2023-02-27T00:43:43;2.17;;;1.00;;
17193;SDS011;8713;48.388;10.928;2023-02-27T00:45:14;2.53;;;1.17;;
17193;SDS011;8713;48.388;10.928;2023-02-27T00:46:43;1.77;;;1.10;;
17193;SDS011;8713;48.388;10.928;2023-02-27T00:48:14;1.48;;;1.08;;
17193;SDS011;8713;48.388;10.928;2023-02-27T00:49:44;1.95;;;1.05;;
17193;SDS011;8713;48.388;10.928;2023-02-27T00:51:14;2.05;;;1.23;;
17193;SDS011;8713;48.388;10.928;2023-02-27T00:52:44;2.50;;;1.10;;
17193;SDS011;8713;48.388;10.928;2023-02-27T00:54:13;2.33;;;1.20;;
17193;SDS011;8713;48.388;10.928;2023-02-27T00:55:42;1.02;;;0.85;;
17193;SDS011;8713;48.388;10.928;2023-02-27T00:57:12;1.48;;;1.05;;
17193;SDS011;8713;48.388;10.928;2023-02-27T00:58:43;2.85;;;1.20;;
17193;SDS011;8713;48.388;10.928;2023-02-27T01:00:12;2.42;;;1.10;;
17193;SDS011;8713;48.388;10.928;2023-02-27T01:01:42;2.28;;;1.20;;
17193;SDS011;8713;48.388;10.928;2023-02-27T01:03:12;1.75;;;1.15;;
17193;SDS011;8713;48.388;10.928;2023-02-27T01:04:41;2.85;;;1.00;;
17193;SDS011;8713;48.388;10.928;2023-02-27T01:06:11;1.73;;;1.00;;
17193;SDS011;8713;48.388;10.928;2023-02-27T01:07:41;2.25;;;1.10;;
17193;SDS011;8713;48.388;10.928;2023-02-27T01:09:10;1.80;;;1.08;;
17193;SDS011;8713;48.388;10.928;2023-02-27T01:10:40;1.77;;;1.05;;
17193;SDS011;8713;48.388;10.928;2023-02-27T01:12:10;2.15;;;1.05;;
17193;SDS011;8713;48.388;10.928;2023-02-27T01:13:39;1.20;;;1.00;;
17193;SDS011;8713;48.388;10.928;2023-02-27T01:15:10;1.92;;;1.00;;
17193;SDS011;8713;48.388;10.928;2023-02-27T01:16:39;2.65;;;0.95;;
17193;SDS011;8713;48.388;10.928;2023-02-27T01:18:10;1.77;;;1.10;;
17193;SDS011;8713;48.388;10.928;2023-02-27T01:19:40;1.88;;;1.15;;
17193;SDS011;8713;48.388;10.928;2023-02-27T01:21:09;2.45;;;1.00;;
17193;SDS011;8713;48.388;10.928;2023-02-27T01:22:39;3.15;;;1.10;;
17193;SDS011;8713;48.388;10.928;2023-02-27T01:24:08;1.27;;;1.05;;
17193;SDS011;8713;48.388;10.928;2023-02-27T01:25:38;1.40;;;1.10;;
17193;SDS011;8713;48.388;10.928;2023-02-27T01:27:08;2.35;;;1.00;;
17193;SDS011;8713;48.388;10.928;2023-02-27T01:28:39;3.17;;;1.08;;
17193;SDS011;8713;48.388;10.928;2023-02-27T01:30:08;1.35;;;0.95;;
17193;SDS011;8713;48.388;10.928;2023-02-27T01:31:43;3.58;;;0.98;;
17193;SDS011;8713;48.388;10.928;2023-02-27T01:33:14;3.25;;;1.23;;
17193;SDS011;8713;48.388;10.928;2023-02-27T01:34:43;2.05;;;1.05;;
17193;SDS011;8713;48.388;10.928;2023-02-27T01:36:13;1.80;;;1.02;;
17193;SDS011;8713;48.388;10.928;2023-02-27T01:37:44;2.25;;;1.10;;
17193;SDS011;8713;48.388;10.928;2023-02-27T01:39:14;3.65;;;1.15;;
17193;SDS011;8713;48.388;10.928;2023-02-27T01:40:43;2.17;;;1.02;;
17193;SDS011;8713;48.388;10.928;2023-02-27T01:42:21;2.10;;;1.05;;
17193;SDS011;8713;48.388;10.928;2023-02-27T01:45:35;3.05;;;1.10;;
17193;SDS011;8713;48.388;10.928;2023-02-27T01:47:11;2.10;;;1.10;;
17193;SDS011;8713;48.388;10.928;2023-02-27T01:48:41;3.08;;;1.15;;
17193;SDS011;8713;48.388;10.928;2023-02-27T01:50:13;1.92;;;1.27;;
17193;SDS011;8713;48.388;10.928;2023-02-27T01:51:45;2.00;;;1.00;;
17193;SDS011;8713;48.388;10.928;2023-02-27T01:53:24;2.13;;;1.20;;
17193;SDS011;8713;48.388;10.928;2023-02-27T01:54:55;2.03;;;1.20;;
17193;SDS011;8713;48.388;10.928;2023-02-27T01:56:28;1.88;;;0.90;;
17193;SDS011;8713;48.388;10.928;2023-02-27T01:57:59;1.98;;;0.93;;
17193;SDS011;8713;48.388;10.928;2023-02-27T01:59:29;2.67;;;1.17;;
17193;SDS011;8713;48.388;10.928;2023-02-27T02:00:59;1.15;;;0.95;;
17193;SDS011;8713;48.388;10.928;2023-02-27T02:02:29;2.30;;;1.10;;
17193;SDS011;8713;48.388;10.928;2023-02-27T02:05:36;1.20;;;1.10;;
17193;SDS011;8713;48.388;10.928;2023-02-27T02:07:09;2.40;;;1.10;;
17193;SDS011;8713;48.388;10.928;2023-02-27T02:08:43;2.20;;;1.17;;
17193;SDS011;8713;48.388;10.928;2023-02-27T02:10:15;2.42;;;1.25;;
17193;SDS011;8713;48.388;10.928;2023-02-27T02:11:45;1.67;;;0.90;;
17193;SDS011;8713;48.388;10.928;2023-02-27T02:13:15;2.85;;;1.20;;
17193;SDS011;8713;48.388;10.928;2023-02-27T02:14:48;1.67;;;1.10;;
17193;SDS011;8713;48.388;10.928;2023-02-27T02:16:29;1.48;;;1.00;;
17193;SDS011;8713;48.388;10.928;2023-02-27T02:18:29;3.22;;;1.10;;
17193;SDS011;8713;48.388;10.928;2023-02-27T02:33:09;2.97;;;1.05;;
17193;SDS011;8713;48.388;10.928;2023-02-27T02:36:50;1.75;;;1.00;;
17193;SDS011;8713;48.388;10.928;2023-02-27T02:40:59;2.58;;;1.02;;
17193;SDS011;8713;48.388;10.928;2023-02-27T02:42:24;1.63;;;1.02;;
17193;SDS011;8713;48.388;10.928;2023-02-27T02:44:06;1.52;;;1.33;;
17193;SDS011;8713;48.388;10.928;2023-02-27T02:49:42;2.55;;;1.55;;
17193;SDS011;8713;48.388;10.928;2023-02-27T02:53:12;2.20;;;1.25;;
17193;SDS011;8713;48.388;10.928;2023-02-27T02:54:57;2.25;;;1.30;;
17193;SDS011;8713;48.388;10.928;2023-02-27T02:56:41;2.97;;;1.23;;
17193;SDS011;8713;48.388;10.928;2023-02-27T02:58:21;2.78;;;1.40;;
17193;SDS011;8713;48.388;10.928;2023-02-27T03:00:11;1.70;;;1.10;;
17193;SDS011;8713;48.388;10.928;2023-02-27T03:01:48;2.55;;;1.10;;
17193;SDS011;8713;48.388;10.928;2023-02-27T03:03:24;3.60;;;1.20;;
17193;SDS011;8713;48.388;10.928;2023-02-27T03:04:59;1.45;;;1.02;;
17193;SDS011;8713;48.388;10.928;2023-02-27T03:06:38;4.03;;;1.35;;
17193;SDS011;8713;48.388;10.928;2023-02-27T03:08:14;2.30;;;1.40;;
17193;SDS011;8713;48.388;10.928;2023-02-27T03:09:59;2.70;;;1.48;;
17193;SDS011;8713;48.388;10.928;2023-02-27T03:11:35;1.40;;;1.13;;
17193;SDS011;8713;48.388;10.928;2023-02-27T03:13:12;1.30;;;1.20;;
17193;SDS011;8713;48.388;10.928;2023-02-27T03:15:10;2.08;;;1.10;;
17193;SDS011;8713;48.388;10.928;2023-02-27T03:16:45;1.30;;;1.10;;
17193;SDS011;8713;48.388;10.928;2023-02-27T03:18:24;2.13;;;1.13;;
17193;SDS011;8713;48.388;10.928;2023-02-27T03:20:02;2.00;;;1.25;;
17193;SDS011;8713;48.388;10.928;2023-02-27T03:21:37;2.47;;;1.20;;
17193;SDS011;8713;48.388;10.928;2023-02-27T03:23:10;2.20;;;1.48;;
17193;SDS011;8713;48.388;10.928;2023-02-27T03:24:46;3.15;;;1.20;;
17193;SDS011;8713;48.388;10.928;2023-02-27T03:26:20;3.40;;;1.50;;
17193;SDS011;8713;48.388;10.928;2023-02-27T03:27:54;2.45;;;1.30;;
17193;SDS011;8713;48.388;10.928;2023-02-27T03:29:36;1.20;;;1.08;;
17193;SDS011;8713;48.388;10.928;2023-02-27T03:31:12;1.25;;;1.10;;
17193;SDS011;8713;48.388;10.928;2023-02-27T03:32:58;1.85;;;1.00;;
17193;SDS011;8713;48.388;10.928;2023-02-27T03:34:49;3.90;;;1.30;;
17193;SDS011;8713;48.388;10.928;2023-02-27T03:36:23;3.05;;;1.40;;
17193;SDS011;8713;48.388;10.928;2023-02-27T03:38:05;2.30;;;1.30;;
17193;SDS011;8713;48.388;10.928;2023-02-27T03:39:51;1.50;;;1.15;;
17193;SDS011;8713;48.388;10.928;2023-02-27T03:41:41;2.70;;;1.38;;
17193;SDS011;8713;48.388;10.928;2023-02-27T03:43:50;2.45;;;1.40;;
17193;SDS011;8713;48.388;10.928;2023-02-27T03:45:34;3.08;;;1.20;;
17193;SDS011;8713;48.388;10.928;2023-02-27T03:47:10;2.08;;;1.40;;
17193;SDS011;8713;48.388;10.928;2023-02-27T03:48:40;1.80;;;1.27;;
17193;SDS011;8713;48.388;10.928;2023-02-27T03:50:13;1.48;;;1.13;;
17193;SDS011;8713;48.388;10.928;2023-02-27T03:51:44;3.53;;;1.40;;
17193;SDS011;8713;48.388;10.928;2023-02-27T03:53:17;2.33;;;1.35;;
17193;SDS011;8713;48.388;10.928;2023-02-27T03:54:58;3.03;;;1.35;;
17193;SDS011;8713;48.388;10.928;2023-02-27T03:57:01;2.00;;;1.10;;
17193;SDS011;8713;48.388;10.928;2023-02-27T03:58:34;2.17;;;1.42;;
17193;SDS011;8713;48.388;10.928;2023-02-27T04:00:09;1.33;;;1.08;;
17193;SDS011;8713;48.388;10.928;2023-02-27T04:01:46;2.30;;;1.25;;
17193;SDS011;8713;48.388;10.928;2023-02-27T04:03:17;1.90;;;1.52;;
17193;SDS011;8713;48.388;10.928;2023-02-27T04:04:47;2.20;;;1.35;;
17193;SDS011;8713;48.388;10.928;2023-02-27T04:06:35;1.65;;;1.15;;
17193;SDS011;8713;48.388;10.928;2023-02-27T04:08:38;1.10;;;0.93;;
17193;SDS011;8713;48.388;10.928;2023-02-27T04:26:54;2.05;;;1.40;;
17193;SDS011;8713;48.388;10.928;2023-02-27T04:28:42;1.42;;;1.20;;
17193;SDS011;8713;48.388;10.928;2023-02-27T04:30:32;3.03;;;1.38;;
17193;SDS011;8713;48.388;10.928;2023-02-27T04:32:14;2.13;;;1.25;;
17193;SDS011;8713;48.388;10.928;2023-02-27T04:34:05;2.17;;;1.30;;
17193;SDS011;8713;48.388;10.928;2023-02-27T04:36:02;1.92;;;1.40;;
17193;SDS011;8713;48.388;10.928;2023-02-27T04:37:57;2.33;;;1.25;;
17193;SDS011;8713;48.388;10.928;2023-02-27T04:39:42;2.03;;;1.30;;
17193;SDS011;8713;48.388;10.928;2023-02-27T04:41:36;3.67;;;1.60;;
17193;SDS011;8713;48.388;10.928;2023-02-27T04:43:17;1.55;;;1.30;;
17193;SDS011;8713;48.388;10.928;2023-02-27T04:44:49;2.60;;;1.40;;
17193;SDS011;8713;48.388;10.928;2023-02-27T04:46:21;1.60;;;1.40;;
17193;SDS011;8713;48.388;10.928;2023-02-27T04:47:58;2.92;;;1.50;;
17193;SDS011;8713;48.388;10.928;2023-02-27T04:49:35;2.30;;;1.25;;
17193;SDS011;8713;48.388;10.928;2023-02-27T04:51:11;3.70;;;1.60;;
17193;SDS011;8713;48.388;10.928;2023-02-27T04:52:44;1.70;;;1.38;;
17193;SDS011;8713;48.388;10.928;2023-02-27T04:54:21;2.28;;;1.38;;
17193;SDS011;8713;48.388;10.928;2023-02-27T04:56:16;1.77;;;1.20;;
17193;SDS011;8713;48.388;10.928;2023-02-27T04:57:59;3.15;;;1.40;;
17193;SDS011;8713;48.388;10.928;2023-02-27T04:59:33;3.35;;;1.30;;
17193;SDS011;8713;48.388;10.928;2023-02-27T05:01:10;2.00;;;1.10;;
17193;SDS011;8713;48.388;10.928;2023-02-27T05:02:57;2.08;;;1.23;;
17193;SDS011;8713;48.388;10.928;2023-02-27T05:04:48;2.83;;;1.40;;
17193;SDS011;8713;48.388;10.928;2023-02-27T05:06:18;4.03;;;1.23;;
17193;SDS011;8713;48.388;10.928;2023-02-27T05:07:53;2.10;;;1.30;;
17193;SDS011;8713;48.388;10.928;2023-02-27T05:11:06;1.60;;;1.23;;
17193;SDS011;8713;48.388;10.928;2023-02-27T05:12:46;2.55;;;1.15;;
17193;SDS011;8713;48.388;10.928;2023-02-27T05:18:05;2.58;;;1.27;;
17193;SDS011;8713;48.388;10.928;2023-02-27T05:19:40;3.50;;;1.40;;
17193;SDS011;8713;48.388;10.928;2023-02-27T05:21:21;1.75;;;1.40;;
17193;SDS011;8713;48.388;10.928;2023-02-27T05:22:57;1.50;;;1.00;;
17193;SDS011;8713;48.388;10.928;2023-02-27T05:28:45;5.07;;;1.45;;
17193;SDS011;8713;48.388;10.928;2023-02-27T05:30:24;2.08;;;1.38;;
17193;SDS011;8713;48.388;10.928;2023-02-27T05:32:05;2.03;;;1.20;;
17193;SDS011;8713;48.388;10.928;2023-02-27T05:34:00;3.63;;;1.50;;
17193;SDS011;8713;48.388;10.928;2023-02-27T05:36:22;1.55;;;1.20;;
17193;SDS011;8713;48.388;10.928;2023-02-27T05:37:40;2.78;;;1.25;;
17193;SDS011;8713;48.388;10.928;2023-02-27T05:39:14;3.17;;;1.35;;
17193;SDS011;8713;48.388;10.928;2023-02-27T05:40:46;2.72;;;1.10;;
17193;SDS011;8713;48.388;10.928;2023-02-27T05:42:35;1.90;;;1.40;;
17193;SDS011;8713;48.388;10.928;2023-02-27T05:44:10;2.05;;;1.25;;
17193;SDS011;8713;48.388;10.928;2023-02-27T05:45:47;2.30;;;1.38;;
17193;SDS011;8713;48.388;10.928;2023-02-27T05:47:20;5.15;;;1.67;;
17193;SDS011;8713;48.388;10.928;2023-02-27T05:48:54;3.20;;;1.42;;
17193;SDS011;8713;48.388;10.928;2023-02-27T05:50:28;1.85;;;1.33;;
17193;SDS011;8713;48.388;10.928;2023-02-27T05:52:00;2.63;;;1.60;;
17193;SDS011;8713;48.388;10.928;2023-02-27T05:53:32;2.72;;;1.42;;
17193;SDS011;8713;48.388;10.928;2023-02-27T05:55:24;2.13;;;1.23;;
17193;SDS011;8713;48.388;10.928;2023-02-27T05:56:58;4.97;;;1.70;;
17193;SDS011;8713;48.388;10.928;2023-02-27T05:58:35;3.00;;;1.48;;
17193;SDS011;8713;48.388;10.928;2023-02-27T06:01:44;3.45;;;1.38;;
17193;SDS011;8713;48.388;10.928;2023-02-27T06:03:14;1.40;;;1.17;;
17193;SDS011;8713;48.388;10.928;2023-02-27T06:04:44;3.42;;;1.70;;
17193;SDS011;8713;48.388;10.928;2023-02-27T06:06:14;2.75;;;1.60;;
17193;SDS011;8713;48.388;10.928;2023-02-27T06:07:46;2.38;;;1.38;;
17193;SDS011;8713;48.388;10.928;2023-02-27T06:09:15;2.47;;;1.50;;
17193;SDS011;8713;48.388;10.928;2023-02-27T06:10:45;3.13;;;1.60;;
17193;SDS011;8713;48.388;10.928;2023-02-27T06:12:14;3.22;;;1.42;;
17193;SDS011;8713;48.388;10.928;2023-02-27T06:13:44;3.10;;;1.45;;
17193;SDS011;8713;48.388;10.928;2023-02-27T06:15:13;1.58;;;1.15;;
17193;SDS011;8713;48.388;10.928;2023-02-27T06:16:43;2.75;;;1.55;;
17193;SDS011;8713;48.388;10.928;2023-02-27T06:18:13;2.67;;;1.50;;
17193;SDS011;8713;48.388;10.928;2023-02-27T06:19:44;2.67;;;1.48;;
17193;SDS011;8713;48.388;10.928;2023-02-27T06:21:13;2.45;;;1.35;;
17193;SDS011;8713;48.388;10.928;2023-02-27T06:22:43;2.80;;;1.42;;
17193;SDS011;8713;48.388;10.928;2023-02-27T06:24:12;2.58;;;1.30;;
17193;SDS011;8713;48.388;10.928;2023-02-27T06:25:41;4.55;;;1.65;;
17193;SDS011;8713;48.388;10.928;2023-02-27T06:27:11;3.13;;;1.60;;
17193;SDS011;8713;48.388;10.928;2023-02-27T06:28:40;5.00;;;1.58;;
17193;SDS011;8713;48.388;10.928;2023-02-27T06:30:10;3.17;;;1.52;;
17193;SDS011;8713;48.388;10.928;2023-02-27T06:31:41;1.92;;;1.33;;
17193;SDS011;8713;48.388;10.928;2023-02-27T06:33:10;3.20;;;1.48;;
17193;SDS011;8713;48.388;10.928;2023-02-27T06:34:40;1.90;;;1.38;;
17193;SDS011;8713;48.388;10.928;2023-02-27T06:36:09;2.05;;;1.48;;
17193;SDS011;8713;48.388;10.928;2023-02-27T06:37:39;2.60;;;1.60;;
17193;SDS011;8713;48.388;10.928;2023-02-27T06:39:08;3.25;;;1.60;;
17193;SDS011;8713;48.388;10.928;2023-02-27T06:40:38;3.72;;;1.60;;
17193;SDS011;8713;48.388;10.928;2023-02-27T06:42:07;2.60;;;1.60;;
17193;SDS011;8713;48.388;10.928;2023-02-27T06:43:37;2.00;;;1.40;;
17193;SDS011;8713;48.388;10.928;2023-02-27T06:45:07;3.85;;;1.48;;
17193;SDS011;8713;48.388;10.928;2023-02-27T06:46:37;3.97;;;1.63;;
17193;SDS011;8713;48.388;10.928;2023-02-27T06:48:06;1.73;;;1.38;;
17193;SDS011;8713;48.388;10.928;2023-02-27T06:49:36;3.03;;;1.55;;
17193;SDS011;8713;48.388;10.928;2023-02-27T06:51:05;2.28;;;1.40;;
17193;SDS011;8713;48.388;10.928;2023-02-27T06:52:35;2.72;;;1.50;;
17193;SDS011;8713;48.388;10.928;2023-02-27T06:54:06;2.28;;;1.58;;
17193;SDS011;8713;48.388;10.928;2023-02-27T06:55:36;3.40;;;1.80;;
17193;SDS011;8713;48.388;10.928;2023-02-27T06:57:06;3.85;;;1.83;;
17193;SDS011;8713;48.388;10.928;2023-02-27T06:58:35;3.42;;;1.67;;
17193;SDS011;8713;48.388;10.928;2023-02-27T07:00:05;1.33;;;1.13;;
17193;SDS011;8713;48.388;10.928;2023-02-27T07:01:36;4.03;;;1.90;;
17193;SDS011;8713;48.388;10.928;2023-02-27T07:03:05;3.17;;;1.58;;
17193;SDS011;8713;48.388;10.928;2023-02-27T07:04:35;5.50;;;1.55;;
17193;SDS011;8713;48.388;10.928;2023-02-27T07:06:04;3.20;;;1.63;;
17193;SDS011;8713;48.388;10.928;2023-02-27T07:07:34;3.20;;;1.55;;
17193;SDS011;8713;48.388;10.928;2023-02-27T07:09:04;2.67;;;1.50;;
17193;SDS011;8713;48.388;10.928;2023-02-27T07:10:33;2.67;;;1.42;;
17193;SDS011;8713;48.388;10.928;2023-02-27T07:12:03;3.35;;;1.80;;
17193;SDS011;8713;48.388;10.928;2023-02-27T07:13:33;3.83;;;1.52;;
17193;SDS011;8713;48.388;10.928;2023-02-27T07:15:04;3.80;;;1.60;;
17193;SDS011;8713;48.388;10.928;2023-02-27T07:16:35;4.78;;;1.83;;
17193;SDS011;8713;48.388;10.928;2023-02-27T07:18:04;2.13;;;1.40;;
17193;SDS011;8713;48.388;10.928;2023-02-27T07:19:34;2.88;;;1.63;;
17193;SDS011;8713;48.388;10.928;2023-02-27T07:21:05;3.00;;;1.30;;
17193;SDS011;8713;48.388;10.928;2023-02-27T07:22:34;3.22;;;1.65;;
17193;SDS011;8713;48.388;10.928;2023-02-27T07:24:03;3.28;;;1.45;;
17193;SDS011;8713;48.388;10.928;2023-02-27T07:25:33;3.55;;;1.80;;
17193;SDS011;8713;48.388;10.928;2023-02-27T07:27:03;2.95;;;1.52;;
17193;SDS011;8713;48.388;10.928;2023-02-27T07:28:33;3.97;;;1.42;;
17193;SDS011;8713;48.388;10.928;2023-02-27T07:30:03;2.10;;;1.58;;
17193;SDS011;8713;48.388;10.928;2023-02-27T07:31:33;4.32;;;1.63;;
17193;SDS011;8713;48.388;10.928;2023-02-27T07:33:02;6.18;;;1.75;;
17193;SDS011;8713;48.388;10.928;2023-02-27T07:34:32;4.88;;;1.60;;
17193;SDS011;8713;48.388;10.928;2023-02-27T07:36:02;2.70;;;1.50;;
17193;SDS011;8713;48.388;10.928;2023-02-27T07:37:32;2.78;;;1.65;;
17193;SDS011;8713;48.388;10.928;2023-02-27T07:39:02;3.67;;;1.80;;
17193;SDS011;8713;48.388;10.928;2023-02-27T07:40:33;3.78;;;1.50;;
17193;SDS011;8713;48.388;10.928;2023-02-27T07:42:02;4.00;;;1.80;;
17193;SDS011;8713;48.388;10.928;2023-02-27T07:43:32;3.63;;;1.58;;
17193;SDS011;8713;48.388;10.928;2023-02-27T07:45:02;1.73;;;1.58;;
17193;SDS011;8713;48.388;10.928;2023-02-27T07:46:32;3.80;;;1.60;;
17193;SDS011;8713;48.388;10.928;2023-02-27T07:48:02;2.03;;;1.55;;
17193;SDS011;8713;48.388;10.928;2023-02-27T07:49:31;2.35;;;1.63;;
17193;SDS011;8713;48.388;10.928;2023-02-27T07:51:01;2.70;;;1.45;;
17193;SDS011;8713;48.388;10.928;2023-02-27T07:52:31;1.90;;;1.38;;
17193;SDS011;8713;48.388;10.928;2023-02-27T07:54:00;3.45;;;1.65;;
17193;SDS011;8713;48.388;10.928;2023-02-27T07:55:30;3.13;;;1.58;;
17193;SDS011;8713;48.388;10.928;2023-02-27T07:56:59;2.55;;;1.45;;
17193;SDS011;8713;48.388;10.928;2023-02-27T07:58:29;5.50;;;1.63;;
17193;SDS011;8713;48.388;10.928;2023-02-27T07:59:58;6.00;;;1.98;;
17193;SDS011;8713;48.388;10.928;2023-02-27T08:01:28;2.22;;;1.40;;
17193;SDS011;8713;48.388;10.928;2023-02-27T08:02:58;2.78;;;1.60;;
17193;SDS011;8713;48.388;10.928;2023-02-27T08:04:28;3.38;;;1.70;;
17193;SDS011;8713;48.388;10.928;2023-02-27T08:05:58;3.20;;;1.58;;
17193;SDS011;8713;48.388;10.928;2023-02-27T08:07:27;3.03;;;1.60;;
17193;SDS011;8713;48.388;10.928;2023-02-27T08:08:57;2.55;;;1.88;;
17193;SDS011;8713;48.388;10.928;2023-02-27T08:10:26;5.30;;;1.90;;
17193;SDS011;8713;48.388;10.928;2023-02-27T08:11:56;3.70;;;1.75;;
17193;SDS011;8713;48.388;10.928;2023-02-27T08:13:26;5.40;;;1.85;;
17193;SDS011;8713;48.388;10.928;2023-02-27T08:14:55;2.72;;;1.80;;
17193;SDS011;8713;48.388;10.928;2023-02-27T08:16:25;5.70;;;2.95;;
17193;SDS011;8713;48.388;10.928;2023-02-27T08:17:54;3.65;;;1.75;;
17193;SDS011;8713;48.388;10.928;2023-02-27T08:19:24;3.50;;;1.70;;
17193;SDS011;8713;48.388;10.928;2023-02-27T08:20:54;2.90;;;1.45;;
17193;SDS011;8713;48.388;10.928;2023-02-27T08:22:24;2.83;;;1.73;;
17193;SDS011;8713;48.388;10.928;2023-02-27T08:23:54;3.85;;;1.80;;
17193;SDS011;8713;48.388;10.928;2023-02-27T08:25:23;3.58;;;1.45;;
17193;SDS011;8713;48.388;10.928;2023-02-27T08:26:53;2.67;;;1.63;;
17193;SDS011;8713;48.388;10.928;2023-02-27T08:28:23;2.78;;;1.50;;
17193;SDS011;8713;48.388;10.928;2023-02-27T08:29:53;2.45;;;1.45;;
17193;SDS011;8713;48.388;10.928;2023-02-27T08:31:22;2.03;;;1.33;;
17193;SDS011;8713;48.388;10.928;2023-02-27T08:32:52;2.25;;;1.50;;
17193;SDS011;8713;48.388;10.928;2023-02-27T08:34:21;2.53;;;1.65;;
17193;SDS011;8713;48.388;10.928;2023-02-27T08:35:51;4.38;;;1.58;;
17193;SDS011;8713;48.388;10.928;2023-02-27T08:37:22;2.80;;;1.75;;
17193;SDS011;8713;48.388;10.928;2023-02-27T08:38:52;3.03;;;1.52;;
17193;SDS011;8713;48.388;10.928;2023-02-27T08:40:21;3.05;;;1.70;;
17193;SDS011;8713;48.388;10.928;2023-02-27T08:41:51;4.28;;;1.60;;
17193;SDS011;8713;48.388;10.928;2023-02-27T08:43:20;3.85;;;1.48;;
17193;SDS011;8713;48.388;10.928;2023-02-27T08:44:51;4.03;;;1.65;;
17193;SDS011;8713;48.388;10.928;2023-02-27T08:46:20;3.25;;;1.52;;
17193;SDS011;8713;48.388;10.928;2023-02-27T08:47:50;3.00;;;1.67;;
17193;SDS011;8713;48.388;10.928;2023-02-27T08:49:19;2.65;;;1.77;;
17193;SDS011;8713;48.388;10.928;2023-02-27T08:50:50;2.55;;;1.63;;
17193;SDS011;8713;48.388;10.928;2023-02-27T08:52:20;3.28;;;1.60;;
17193;SDS011;8713;48.388;10.928;2023-02-27T08:53:50;3.53;;;1.50;;
17193;SDS011;8713;48.388;10.928;2023-02-27T08:55:20;3.90;;;1.60;;
17193;SDS011;8713;48.388;10.928;2023-02-27T08:56:50;5.18;;;2.00;;
17193;SDS011;8713;48.388;10.928;2023-02-27T08:58:19;3.35;;;1.50;;
17193;SDS011;8713;48.388;10.928;2023-02-27T08:59:49;3.97;;;1.67;;
17193;SDS011;8713;48.388;10.928;2023-02-27T09:01:18;4.25;;;1.70;;
17193;SDS011;8713;48.388;10.928;2023-02-27T09:02:48;2.53;;;1.50;;
17193;SDS011;8713;48.388;10.928;2023-02-27T09:04:17;3.92;;;1.60;;
17193;SDS011;8713;48.388;10.928;2023-02-27T09:05:39;4.53;;;1.42;;
17193;SDS011;8713;48.388;10.928;2023-02-27T09:06:49;3.20;;;1.50;;
17193;SDS011;8713;48.388;10.928;2023-02-27T09:08:01;2.60;;;1.60;;
17193;SDS011;8713;48.388;10.928;2023-02-27T09:09:12;2.05;;;1.42;;
17193;SDS011;8713;48.388;10.928;2023-02-27T09:10:21;3.17;;;1.70;;
17193;SDS011;8713;48.388;10.928;2023-02-27T09:11:31;4.38;;;1.80;;
17193;SDS011;8713;48.388;10.928;2023-02-27T09:12:40;3.92;;;1.60;;
17193;SDS011;8713;48.388;10.928;2023-02-27T09:13:50;3.47;;;1.50;;
17193;SDS011;8713;48.388;10.928;2023-02-27T09:15:00;2.80;;;1.48;;
17193;SDS011;8713;48.388;10.928;2023-02-27T09:16:19;2.70;;;1.60;;
17193;SDS011;8713;48.388;10.928;2023-02-27T09:17:30;3.08;;;1.65;;
17193;SDS011;8713;48.388;10.928;2023-02-27T09:18:39;2.85;;;1.48;;
17193;SDS011;8713;48.388;10.928;2023-02-27T09:19:55;3.38;;;1.65;;
17193;SDS011;8713;48.388;10.928;2023-02-27T09:21:23;4.55;;;1.80;;
17193;SDS011;8713;48.388;10.928;2023-02-27T09:22:51;3.10;;;1.60;;
17193;SDS011;8713;48.388;10.928;2023-02-27T09:24:20;3.10;;;1.50;;
17193;SDS011;8713;48.388;10.928;2023-02-27T09:25:48;2.67;;;1.60;;
17193;SDS011;8713;48.388;10.928;2023-02-27T09:27:16;3.72;;;1.85;;
17193;SDS011;8713;48.388;10.928;2023-02-27T09:28:26;2.60;;;1.50;;
17193;SDS011;8713;48.388;10.928;2023-02-27T09:29:54;4.90;;;1.77;;
17193;SDS011;8713;48.388;10.928;2023-02-27T09:31:24;4.32;;;1.63;;
17193;SDS011;8713;48.388;10.928;2023-02-27T09:32:53;4.55;;;1.80;;
17193;SDS011;8713;48.388;10.928;2023-02-27T09:34:21;2.15;;;1.40;;
17193;SDS011;8713;48.388;10.928;2023-02-27T09:35:49;2.35;;;1.48;;
17193;SDS011;8713;48.388;10.928;2023-02-27T09:37:17;4.72;;;1.67;;
17193;SDS011;8713;48.388;10.928;2023-02-27T09:38:48;4.72;;;1.63;;
17193;SDS011;8713;48.388;10.928;2023-02-27T09:39:58;2.03;;;1.30;;
17193;SDS011;8713;48.388;10.928;2023-02-27T09:41:19;6.22;;;1.48;;
17193;SDS011;8713;48.388;10.928;2023-02-27T09:42:40;2.30;;;1.38;;
17193;SDS011;8713;48.388;10.928;2023-02-27T09:43:53;2.72;;;1.50;;
17193;SDS011;8713;48.388;10.928;2023-02-27T09:45:05;1.60;;;1.30;;
17193;SDS011;8713;48.388;10.928;2023-02-27T09:46:19;5.50;;;1.65;;
17193;SDS011;8713;48.388;10.928;2023-02-27T09:47:34;5.10;;;1.88;;
17193;SDS011;8713;48.388;10.928;2023-02-27T09:48:57;3.88;;;1.77;;
17193;SDS011;8713;48.388;10.928;2023-02-27T09:50:30;7.45;;;1.83;;
17193;SDS011;8713;48.388;10.928;2023-02-27T09:51:54;1.67;;;1.33;;
17193;SDS011;8713;48.388;10.928;2023-02-27T09:53:03;3.03;;;1.65;;
17193;SDS011;8713;48.388;10.928;2023-02-27T09:54:17;4.50;;;1.70;;
17193;SDS011;8713;48.388;10.928;2023-02-27T09:55:29;3.58;;;1.40;;
17193;SDS011;8713;48.388;10.928;2023-02-27T09:56:45;2.95;;;1.70;;
17193;SDS011;8713;48.388;10.928;2023-02-27T09:57:58;3.97;;;1.55;;
17193;SDS011;8713;48.388;10.928;2023-02-27T10:00:48;2.58;;;1.42;;
17193;SDS011;8713;48.388;10.928;2023-02-27T10:03:50;2.33;;;1.30;;
17193;SDS011;8713;48.388;10.928;2023-02-27T10:09:45;3.95;;;1.58;;
17193;SDS011;8713;48.388;10.928;2023-02-27T10:11:12;2.67;;;1.40;;
17193;SDS011;8713;48.388;10.928;2023-02-27T10:15:10;2.90;;;1.40;;
17193;SDS011;8713;48.388;10.928;2023-02-27T10:16:37;5.07;;;1.45;;